sensor_id;sensor_type;location;lat;lon;timestamp;pressure;altitude;pressure_sealevel;temperature;humidity
20394;BME280;10356;50.544;9.642;2024-01-27T00:02:03;99909.34;;;3.08;90.48
20394;BME280;10356;50.544;9.642;2024-01-27T00:04:31;99916.28;;;3.04;90.57
20394;BME280;10356;50.544;9.642;2024-01-27T00:06:57;99909.50;;;3.00;90.49
20394;BME280;10356;50.544;9.642;2024-01-27T00:09:24;99913.91;;;2.94;90.67
20394;BME280;10356;50.544;9.642;2024-01-27T00:11:50;99915.75;;;2.89;90.95
20394;BME280;10356;50.544;9.642;2024-01-27T00:14:17;99920.13;;;2.84;91.06
20394;BME280;10356;50.544;9.642;2024-01-27T00:16:43;99931.34;;;2.80;90.58
20394;BME280;10356;50.544;9.642;2024-01-27T00:19:10;99922.94;;;2.72;91.16
20394;BME280;10356;50.544;9.642;2024-01-27T00:21:37;99922.28;;;2.62;91.52
20394;BME280;10356;50.544;9.642;2024-01-27T00:24:04;99925.97;;;2.47;92.06
20394;BME280;10356;50.544;9.642;2024-01-27T00:26:31;99927.91;;;2.35;92.52
20394;BME280;10356;50.544;9.642;2024-01-27T00:28:58;99933.25;;;2.23;93.07
20394;BME280;10356;50.544;9.642;2024-01-27T00:31:24;99932.56;;;2.13;93.82
20394;BME280;10356;50.544;9.642;2024-01-27T00:33:51;99937.81;;;2.07;94.69
20394;BME280;10356;50.544;9.642;2024-01-27T00:36:17;99938.78;;;2.02;94.85
20394;BME280;10356;50.544;9.642;2024-01-27T00:38:46;99937.94;;;1.98;95.98
20394;BME280;10356;50.544;9.642;2024-01-27T00:41:16;99939.69;;;1.96;96.66
20394;BME280;10356;50.544;9.642;2024-01-27T00:43:41;99933.75;;;1.93;96.77
20394;BME280;10356;50.544;9.642;2024-01-27T00:46:08;99936.44;;;1.87;97.44
20394;BME280;10356;50.544;9.642;2024-01-27T00:48:34;99936.44;;;1.87;97.85
20394;BME280;10356;50.544;9.642;2024-01-27T00:51:01;99928.72;;;1.87;98.27
20394;BME280;10356;50.544;9.642;2024-01-27T00:53:27;99936.34;;;1.91;97.90
20394;BME280;10356;50.544;9.642;2024-01-27T00:55:55;99941.63;;;1.82;97.66
20394;BME280;10356;50.544;9.642;2024-01-27T00:58:21;99946.13;;;1.69;98.04
20394;BME280;10356;50.544;9.642;2024-01-27T01:00:48;99938.56;;;1.59;98.63
20394;BME280;10356;50.544;9.642;2024-01-27T01:03:14;99943.66;;;1.62;99.07
20394;BME280;10356;50.544;9.642;2024-01-27T01:05:41;99952.09;;;1.70;99.18
20394;BME280;10356;50.544;9.642;2024-01-27T01:08:07;99952.97;;;1.69;99.16
20394;BME280;10356;50.544;9.642;2024-01-27T01:10:34;99959.91;;;1.62;99.08
20394;BME280;10356;50.544;9.642;2024-01-27T01:13:02;99963.34;;;1.63;99.48
20394;BME280;10356;50.544;9.642;2024-01-27T01:15:28;99970.06;;;1.72;99.50
20394;BME280;10356;50.544;9.642;2024-01-27T01:17:55;99972.72;;;1.64;99.51
20394;BME280;10356;50.544;9.642;2024-01-27T01:20:22;99973.66;;;1.61;99.65
20394;BME280;10356;50.544;9.642;2024-01-27T01:22:51;99981.44;;;1.54;99.82
20394;BME280;10356;50.544;9.642;2024-01-27T01:25:17;99975.53;;;1.49;100.00
20394;BME280;10356;50.544;9.642;2024-01-27T01:27:44;99977.06;;;1.60;100.00
20394;BME280;10356;50.544;9.642;2024-01-27T01:30:13;99980.50;;;1.61;99.82
20394;BME280;10356;50.544;9.642;2024-01-27T01:32:39;99990.63;;;1.72;99.25
20394;BME280;10356;50.544;9.642;2024-01-27T01:35:06;99994.91;;;1.71;99.03
20394;BME280;10356;50.544;9.642;2024-01-27T01:37:32;99997.56;;;1.65;98.77
20394;BME280;10356;50.544;9.642;2024-01-27T01:39:59;100001.97;;;1.57;99.37
20394;BME280;10356;50.544;9.642;2024-01-27T01:42:25;100001.91;;;1.60;99.32
20394;BME280;10356;50.544;9.642;2024-01-27T01:44:52;100006.28;;;1.53;99.09
20394;BME280;10356;50.544;9.642;2024-01-27T01:47:20;100002.03;;;1.51;99.37
20394;BME280;10356;50.544;9.642;2024-01-27T01:49:47;99998.56;;;1.55;99.15
20394;BME280;10356;50.544;9.642;2024-01-27T01:52:14;100000.31;;;1.50;99.30
20394;BME280;10356;50.544;9.642;2024-01-27T01:54:46;100015.84;;;1.42;99.25
20394;BME280;10356;50.544;9.642;2024-01-27T01:57:13;100010.69;;;1.44;99.59
20394;BME280;10356;50.544;9.642;2024-01-27T01:59:40;100015.88;;;1.38;99.33
20394;BME280;10356;50.544;9.642;2024-01-27T02:02:07;100010.75;;;1.38;99.46
20394;BME280;10356;50.544;9.642;2024-01-27T02:04:40;100012.50;;;1.36;99.19
20394;BME280;10356;50.544;9.642;2024-01-27T02:07:07;100018.53;;;1.32;99.12
20394;BME280;10356;50.544;9.642;2024-01-27T02:09:32;100014.34;;;1.23;99.47
20394;BME280;10356;50.544;9.642;2024-01-27T02:11:59;100019.50;;;1.25;99.13
20394;BME280;10356;50.544;9.642;2024-01-27T02:14:25;100026.38;;;1.20;99.13
20394;BME280;10356;50.544;9.642;2024-01-27T02:16:52;100033.25;;;1.18;99.27
20394;BME280;10356;50.544;9.642;2024-01-27T02:19:19;100033.34;;;1.10;99.45
20394;BME280;10356;50.544;9.642;2024-01-27T02:21:47;100030.78;;;1.09;99.62
20394;BME280;10356;50.544;9.642;2024-01-27T02:24:14;100034.25;;;1.05;99.70
20394;BME280;10356;50.544;9.642;2024-01-27T02:26:41;100031.69;;;1.05;99.67
20394;BME280;10356;50.544;9.642;2024-01-27T02:29:07;100025.59;;;1.13;99.36
20394;BME280;10356;50.544;9.642;2024-01-27T02:31:34;100029.91;;;1.10;98.99
20394;BME280;10356;50.544;9.642;2024-01-27T02:34:00;100043.69;;;1.03;99.04
20394;BME280;10356;50.544;9.642;2024-01-27T02:36:27;100034.31;;;1.00;99.30
20394;BME280;10356;50.544;9.642;2024-01-27T02:38:53;100039.47;;;0.99;99.39
20394;BME280;10356;50.544;9.642;2024-01-27T02:41:21;100033.50;;;0.94;99.59
20394;BME280;10356;50.544;9.642;2024-01-27T02:43:48;100036.13;;;0.89;99.52
20394;BME280;10356;50.544;9.642;2024-01-27T02:46:14;100039.56;;;0.85;99.80
20394;BME280;10356;50.544;9.642;2024-01-27T02:48:41;100037.03;;;0.87;100.00
20394;BME280;10356;50.544;9.642;2024-01-27T02:51:07;100042.16;;;0.87;99.76
20394;BME280;10356;50.544;9.642;2024-01-27T02:53:34;100037.78;;;0.93;99.96
20394;BME280;10356;50.544;9.642;2024-01-27T02:56:00;100031.75;;;0.99;99.38
20394;BME280;10356;50.544;9.642;2024-01-27T02:58:28;100036.94;;;0.94;99.32
20394;BME280;10356;50.544;9.642;2024-01-27T03:00:55;100031.75;;;0.99;99.32
20394;BME280;10356;50.544;9.642;2024-01-27T03:03:21;100029.97;;;1.07;99.15
20394;BME280;10356;50.544;9.642;2024-01-27T03:05:48;100029.84;;;1.16;98.87
20394;BME280;10356;50.544;9.642;2024-01-27T03:08:14;100025.63;;;1.12;98.15
20394;BME280;10356;50.544;9.642;2024-01-27T03:10:41;100024.81;;;1.08;98.49
20394;BME280;10356;50.544;9.642;2024-01-27T03:13:07;100028.25;;;1.06;98.30
20394;BME280;10356;50.544;9.642;2024-01-27T03:15:35;100024.06;;;0.97;98.35
20394;BME280;10356;50.544;9.642;2024-01-27T03:18:02;100021.59;;;0.88;98.80
20394;BME280;10356;50.544;9.642;2024-01-27T03:20:29;100019.97;;;0.82;99.17
20394;BME280;10356;50.544;9.642;2024-01-27T03:22:56;100015.66;;;0.83;99.57
20394;BME280;10356;50.544;9.642;2024-01-27T03:25:23;100028.50;;;0.84;99.95
20394;BME280;10356;50.544;9.642;2024-01-27T03:27:50;100029.34;;;0.83;99.87
20394;BME280;10356;50.544;9.642;2024-01-27T03:30:17;100028.44;;;0.88;99.88
20394;BME280;10356;50.544;9.642;2024-01-27T03:32:45;100028.44;;;0.88;100.00
20394;BME280;10356;50.544;9.642;2024-01-27T03:35:11;100021.56;;;0.91;99.96
20394;BME280;10356;50.544;9.642;2024-01-27T03:37:38;100021.63;;;0.83;100.00
20394;BME280;10356;50.544;9.642;2024-01-27T03:40:06;100028.50;;;0.81;100.00
20394;BME280;10356;50.544;9.642;2024-01-27T03:42:33;100031.88;;;0.87;100.00
20394;BME280;10356;50.544;9.642;2024-01-27T03:44:59;100033.56;;;0.88;100.00
20394;BME280;10356;50.544;9.642;2024-01-27T03:47:25;100036.94;;;0.91;100.00
20394;BME280;10356;50.544;9.642;2024-01-27T03:49:53;100039.53;;;0.91;100.00
20394;BME280;10356;50.544;9.642;2024-01-27T03:52:20;100035.28;;;0.89;100.00
20394;BME280;10356;50.544;9.642;2024-01-27T03:54:46;100041.31;;;0.83;100.00
20394;BME280;10356;50.544;9.642;2024-01-27T03:57:13;100041.38;;;0.78;100.00
20394;BME280;10356;50.544;9.642;2024-01-27T03:59:40;100043.19;;;0.66;100.00
20394;BME280;10356;50.544;9.642;2024-01-27T04:02:06;100046.72;;;0.53;100.00
20394;BME280;10356;50.544;9.642;2024-01-27T04:04:33;100049.44;;;0.36;100.00
20394;BME280;10356;50.544;9.642;2024-01-27T04:07:00;100055.53;;;0.20;100.00
20394;BME280;10356;50.544;9.642;2024-01-27T04:09:27;100060.69;;;0.13;100.00
20394;BME280;10356;50.544;9.642;2024-01-27T04:11:54;100063.34;;;0.00;100.00
20394;BME280;10356;50.544;9.642;2024-01-27T04:14:20;100063.38;;;-0.03;100.00
20394;BME280;10356;50.544;9.642;2024-01-27T04:16:47;100064.25;;;-0.05;100.00
20394;BME280;10356;50.544;9.642;2024-01-27T04:19:14;100062.50;;;0.00;100.00
20394;BME280;10356;50.544;9.642;2024-01-27T04:21:40;100065.00;;;0.12;100.00
20394;BME280;10356;50.544;9.642;2024-01-27T04:24:09;100065.69;;;0.31;100.00
20394;BME280;10356;50.544;9.642;2024-01-27T04:26:35;100062.16;;;0.50;100.00
20394;BME280;10356;50.544;9.642;2024-01-27T04:29:02;100076.69;;;0.48;100.00
20394;BME280;10356;50.544;9.642;2024-01-27T04:31:28;100070.78;;;0.38;100.00
20394;BME280;10356;50.544;9.642;2024-01-27T04:33:56;100079.41;;;0.25;100.00
20394;BME280;10356;50.544;9.642;2024-01-27T04:36:26;100086.38;;;0.08;100.00
20394;BME280;10356;50.544;9.642;2024-01-27T04:38:54;100085.56;;;0.00;100.00
20394;BME280;10356;50.544;9.642;2024-01-27T04:41:21;100093.31;;;-0.18;100.00
20394;BME280;10356;50.544;9.642;2024-01-27T04:43:48;100085.78;;;-0.44;100.00
20394;BME280;10356;50.544;9.642;2024-01-27T04:46:15;100085.78;;;-0.44;100.00
20394;BME280;10356;50.544;9.642;2024-01-27T04:48:42;100091.78;;;-0.52;100.00
20394;BME280;10356;50.544;9.642;2024-01-27T04:51:08;100097.78;;;-0.62;100.00
20394;BME280;10356;50.544;9.642;2024-01-27T04:53:35;100091.81;;;-0.64;100.00
20394;BME280;10356;50.544;9.642;2024-01-27T04:56:01;100090.13;;;-0.61;100.00
20394;BME280;10356;50.544;9.642;2024-01-27T04:58:34;100092.66;;;-0.59;100.00
20394;BME280;10356;50.544;9.642;2024-01-27T05:01:00;100099.44;;;-0.52;100.00
20394;BME280;10356;50.544;9.642;2024-01-27T05:03:27;100092.63;;;-0.47;100.00
20394;BME280;10356;50.544;9.642;2024-01-27T05:05:53;100097.75;;;-0.56;100.00
20394;BME280;10356;50.544;9.642;2024-01-27T05:08:20;100110.56;;;-0.58;100.00
20394;BME280;10356;50.544;9.642;2024-01-27T05:10:46;100121.69;;;-0.66;100.00
20394;BME280;10356;50.544;9.642;2024-01-27T05:13:13;100114.00;;;-0.66;100.00
20394;BME280;10356;50.544;9.642;2024-01-27T05:15:41;100113.19;;;-0.71;100.00
20394;BME280;10356;50.544;9.642;2024-01-27T05:18:07;100106.34;;;-0.78;100.00
20394;BME280;10356;50.544;9.642;2024-01-27T05:20:35;100103.84;;;-0.89;100.00
20394;BME280;10356;50.544;9.642;2024-01-27T05:23:02;100111.50;;;-0.91;100.00
20394;BME280;10356;50.544;9.642;2024-01-27T05:25:28;100123.44;;;-0.93;100.00
20394;BME280;10356;50.544;9.642;2024-01-27T05:27:55;100131.13;;;-0.96;100.00
20394;BME280;10356;50.544;9.642;2024-01-27T05:30:21;100126.84;;;-0.97;100.00
20394;BME280;10356;50.544;9.642;2024-01-27T05:32:49;100128.59;;;-1.02;100.00
20394;BME280;10356;50.544;9.642;2024-01-27T05:35:16;100123.47;;;-1.08;100.00
20394;BME280;10356;50.544;9.642;2024-01-27T05:37:42;100134.56;;;-1.10;100.00
20394;BME280;10356;50.544;9.642;2024-01-27T05:40:09;100133.72;;;-1.14;100.00
20394;BME280;10356;50.544;9.642;2024-01-27T05:42:36;100138.81;;;-1.17;100.00
20394;BME280;10356;50.544;9.642;2024-01-27T05:45:03;100136.28;;;-1.14;100.00
20394;BME280;10356;50.544;9.642;2024-01-27T05:47:29;100140.53;;;-1.23;100.00
20394;BME280;10356;50.544;9.642;2024-01-27T05:49:57;100130.28;;;-1.25;100.00
20394;BME280;10356;50.544;9.642;2024-01-27T05:52:23;100137.97;;;-1.28;100.00
20394;BME280;10356;50.544;9.642;2024-01-27T05:54:51;100145.63;;;-1.31;100.00
20394;BME280;10356;50.544;9.642;2024-01-27T05:57:18;100142.22;;;-1.33;100.00
20394;BME280;10356;50.544;9.642;2024-01-27T05:59:44;100143.06;;;-1.38;100.00
20394;BME280;10356;50.544;9.642;2024-01-27T06:02:11;100137.13;;;-1.42;100.00
20394;BME280;10356;50.544;9.642;2024-01-27T06:04:37;100143.06;;;-1.46;100.00
20394;BME280;10356;50.544;9.642;2024-01-27T06:07:05;100150.75;;;-1.46;100.00
20394;BME280;10356;50.544;9.642;2024-01-27T06:09:32;100155.84;;;-1.43;100.00
20394;BME280;10356;50.544;9.642;2024-01-27T06:11:59;100155.00;;;-1.42;100.00
20394;BME280;10356;50.544;9.642;2024-01-27T06:14:25;100160.09;;;-1.49;100.00
20394;BME280;10356;50.544;9.642;2024-01-27T06:16:52;100152.41;;;-1.57;100.00
20394;BME280;10356;50.544;9.642;2024-01-27T06:19:18;100172.88;;;-1.57;100.00
20394;BME280;10356;50.544;9.642;2024-01-27T06:21:45;100175.41;;;-1.61;100.00
20394;BME280;10356;50.544;9.642;2024-01-27T06:24:13;100175.41;;;-1.61;100.00
20394;BME280;10356;50.544;9.642;2024-01-27T06:26:39;100180.50;;;-1.61;100.00
20394;BME280;10356;50.544;9.642;2024-01-27T06:29:05;100178.84;;;-1.64;100.00
20394;BME280;10356;50.544;9.642;2024-01-27T06:31:32;100179.66;;;-1.65;100.00
20394;BME280;10356;50.544;9.642;2024-01-27T06:33:58;100183.09;;;-1.66;100.00
20394;BME280;10356;50.544;9.642;2024-01-27T06:36:25;100174.56;;;-1.68;100.00
20394;BME280;10356;50.544;9.642;2024-01-27T06:38:52;100177.97;;;-1.66;100.00
20394;BME280;10356;50.544;9.642;2024-01-27T06:41:20;100183.09;;;-1.66;100.00
20394;BME280;10356;50.544;9.642;2024-01-27T06:43:47;100174.56;;;-1.68;100.00
20394;BME280;10356;50.544;9.642;2024-01-27T06:46:14;100182.22;;;-1.71;100.00
20394;BME280;10356;50.544;9.642;2024-01-27T06:48:40;100183.91;;;-1.75;100.00
20394;BME280;10356;50.544;9.642;2024-01-27T06:51:06;100191.56;;;-1.72;100.00
20394;BME280;10356;50.544;9.642;2024-01-27T06:53:33;100196.69;;;-1.73;100.00
20394;BME280;10356;50.544;9.642;2024-01-27T06:55:59;100212.84;;;-1.77;100.00
20394;BME280;10356;50.544;9.642;2024-01-27T06:58:27;100207.72;;;-1.82;100.00
20394;BME280;10356;50.544;9.642;2024-01-27T07:00:54;100208.59;;;-1.84;100.00
20394;BME280;10356;50.544;9.642;2024-01-27T07:03:21;100208.56;;;-1.90;100.00
20394;BME280;10356;50.544;9.642;2024-01-27T07:05:47;100211.94;;;-1.91;100.00
20394;BME280;10356;50.544;9.642;2024-01-27T07:08:14;100217.06;;;-1.91;100.00
20394;BME280;10356;50.544;9.642;2024-01-27T07:10:41;100221.31;;;-1.92;100.00
20394;BME280;10356;50.544;9.642;2024-01-27T07:13:08;100222.16;;;-1.91;100.00
20394;BME280;10356;50.544;9.642;2024-01-27T07:15:36;100217.09;;;-1.88;100.00
20394;BME280;10356;50.544;9.642;2024-01-27T07:18:03;100218.81;;;-1.84;100.00
20394;BME280;10356;50.544;9.642;2024-01-27T07:20:30;100220.53;;;-1.80;100.00
20394;BME280;10356;50.544;9.642;2024-01-27T07:22:57;100223.94;;;-1.77;100.00
20394;BME280;10356;50.544;9.642;2024-01-27T07:25:23;100226.47;;;-1.75;100.00
20394;BME280;10356;50.544;9.642;2024-01-27T07:27:49;100229.06;;;-1.72;100.00
20394;BME280;10356;50.544;9.642;2024-01-27T07:30:16;100230.78;;;-1.68;100.00
20394;BME280;10356;50.544;9.642;2024-01-27T07:32:44;100231.63;;;-1.61;100.00
20394;BME280;10356;50.544;9.642;2024-01-27T07:35:10;100223.13;;;-1.59;100.00
20394;BME280;10356;50.544;9.642;2024-01-27T07:37:37;100220.56;;;-1.59;100.00
20394;BME280;10356;50.544;9.642;2024-01-27T07:40:05;100219.72;;;-1.58;100.00
20394;BME280;10356;50.544;9.642;2024-01-27T07:42:33;100218.88;;;-1.57;100.00
20394;BME280;10356;50.544;9.642;2024-01-27T07:45:00;100223.16;;;-1.56;100.00
20394;BME280;10356;50.544;9.642;2024-01-27T07:47:27;100217.16;;;-1.55;100.00
20394;BME280;10356;50.544;9.642;2024-01-27T07:49:54;100227.41;;;-1.52;100.00
20394;BME280;10356;50.544;9.642;2024-01-27T07:52:21;100227.41;;;-1.50;100.00
20394;BME280;10356;50.544;9.642;2024-01-27T07:54:47;100234.25;;;-1.48;100.00
20394;BME280;10356;50.544;9.642;2024-01-27T07:57:14;100241.06;;;-1.42;100.00
20394;BME280;10356;50.544;9.642;2024-01-27T07:59:40;100234.28;;;-1.36;100.00
20394;BME280;10356;50.544;9.642;2024-01-27T08:02:07;100244.47;;;-1.33;100.00
20394;BME280;10356;50.544;9.642;2024-01-27T08:04:33;100247.06;;;-1.27;100.00
20394;BME280;10356;50.544;9.642;2024-01-27T08:07:01;100244.50;;;-1.21;100.00
20394;BME280;10356;50.544;9.642;2024-01-27T08:09:31;100241.97;;;-1.18;100.00
20394;BME280;10356;50.544;9.642;2024-01-27T08:11:58;100240.28;;;-1.11;100.00
20394;BME280;10356;50.544;9.642;2024-01-27T08:14:24;100244.56;;;-1.07;100.00
20394;BME280;10356;50.544;9.642;2024-01-27T08:16:51;100240.25;;;-1.01;100.00
20394;BME280;10356;50.544;9.642;2024-01-27T08:19:17;100244.56;;;-0.94;100.00
20394;BME280;10356;50.544;9.642;2024-01-27T08:21:45;100240.28;;;-0.89;100.00
20394;BME280;10356;50.544;9.642;2024-01-27T08:24:13;100242.84;;;-0.79;100.00
20394;BME280;10356;50.544;9.642;2024-01-27T08:26:40;100247.94;;;-0.72;100.00
20394;BME280;10356;50.544;9.642;2024-01-27T08:29:07;100250.50;;;-0.64;100.00
20394;BME280;10356;50.544;9.642;2024-01-27T08:31:34;100256.47;;;-0.53;100.00
20394;BME280;10356;50.544;9.642;2024-01-27T08:34:00;100261.59;;;-0.47;100.00
20394;BME280;10356;50.544;9.642;2024-01-27T08:36:26;100259.03;;;-0.43;100.00
20394;BME280;10356;50.544;9.642;2024-01-27T08:38:53;100265.00;;;-0.39;100.00
20394;BME280;10356;50.544;9.642;2024-01-27T08:41:22;100259.88;;;-0.33;100.00
20394;BME280;10356;50.544;9.642;2024-01-27T08:43:48;100271.81;;;-0.32;100.00
20394;BME280;10356;50.544;9.642;2024-01-27T08:46:15;100261.56;;;-0.19;100.00
20394;BME280;10356;50.544;9.642;2024-01-27T08:48:43;100258.09;;;-0.07;100.00
20394;BME280;10356;50.544;9.642;2024-01-27T08:51:10;100256.38;;;-0.02;100.00
20394;BME280;10356;50.544;9.642;2024-01-27T08:53:38;100258.94;;;0.04;100.00
20394;BME280;10356;50.544;9.642;2024-01-27T08:56:04;100251.22;;;0.07;100.00
20394;BME280;10356;50.544;9.642;2024-01-27T08:58:32;100262.31;;;0.15;100.00
20394;BME280;10356;50.544;9.642;2024-01-27T09:00:59;100267.38;;;0.32;100.00
20394;BME280;10356;50.544;9.642;2024-01-27T09:03:30;100269.88;;;0.48;100.00
20394;BME280;10356;50.544;9.642;2024-01-27T09:05:57;100271.50;;;0.61;100.00
20394;BME280;10356;50.544;9.642;2024-01-27T09:08:23;100266.38;;;0.64;100.00
20394;BME280;10356;50.544;9.642;2024-01-27T09:10:50;100260.31;;;0.73;100.00
20394;BME280;10356;50.544;9.642;2024-01-27T09:13:16;100262.00;;;0.80;100.00
20394;BME280;10356;50.544;9.642;2024-01-27T09:15:44;100254.25;;;0.88;100.00
20394;BME280;10356;50.544;9.642;2024-01-27T09:18:11;100256.75;;;0.94;100.00
20394;BME280;10356;50.544;9.642;2024-01-27T09:20:37;100254.94;;;1.11;100.00
20394;BME280;10356;50.544;9.642;2024-01-27T09:23:04;100248.94;;;1.15;100.00
20394;BME280;10356;50.544;9.642;2024-01-27T09:25:30;100254.84;;;1.21;100.00
20394;BME280;10356;50.544;9.642;2024-01-27T09:27:57;100254.78;;;1.27;100.00
20394;BME280;10356;50.544;9.642;2024-01-27T09:30:26;100253.88;;;1.36;100.00
20394;BME280;10356;50.544;9.642;2024-01-27T09:32:53;100254.72;;;1.38;100.00
20394;BME280;10356;50.544;9.642;2024-01-27T09:35:20;100265.81;;;1.43;100.00
20394;BME280;10356;50.544;9.642;2024-01-27T09:37:47;100263.94;;;1.60;100.00
20394;BME280;10356;50.544;9.642;2024-01-27T09:40:13;100261.31;;;1.64;100.00
20394;BME280;10356;50.544;9.642;2024-01-27T09:42:46;100255.25;;;1.73;100.00
20394;BME280;10356;50.544;9.642;2024-01-27T09:45:15;100250.06;;;1.76;100.00
20394;BME280;10356;50.544;9.642;2024-01-27T09:47:42;100248.25;;;1.87;100.00
20394;BME280;10356;50.544;9.642;2024-01-27T09:50:11;100265.34;;;1.91;100.00
20394;BME280;10356;50.544;9.642;2024-01-27T09:52:37;100266.13;;;1.98;100.00
20394;BME280;10356;50.544;9.642;2024-01-27T09:55:04;100268.66;;;2.04;100.00
20394;BME280;10356;50.544;9.642;2024-01-27T09:57:31;100270.25;;;2.11;100.00
20394;BME280;10356;50.544;9.642;2024-01-27T09:59:58;100266.75;;;2.16;100.00
20394;BME280;10356;50.544;9.642;2024-01-27T10:02:26;100266.69;;;2.22;100.00
20394;BME280;10356;50.544;9.642;2024-01-27T10:04:53;100268.25;;;2.35;100.00
20394;BME280;10356;50.544;9.642;2024-01-27T10:07:22;100274.13;;;2.45;100.00
20394;BME280;10356;50.544;9.642;2024-01-27T10:09:50;100269.69;;;2.58;100.00
20394;BME280;10356;50.544;9.642;2024-01-27T10:12:18;100269.59;;;2.67;100.00
20394;BME280;10356;50.544;9.642;2024-01-27T10:14:47;100267.84;;;2.69;100.00
20394;BME280;10356;50.544;9.642;2024-01-27T10:17:20;100259.97;;;2.79;100.00
20394;BME280;10356;50.544;9.642;2024-01-27T10:19:46;100249.50;;;2.90;100.00
20394;BME280;10356;50.544;9.642;2024-01-27T10:22:13;100251.16;;;2.94;100.00
20394;BME280;10356;50.544;9.642;2024-01-27T10:24:41;100245.91;;;3.03;100.00
20394;BME280;10356;50.544;9.642;2024-01-27T10:27:09;100251.69;;;3.17;100.00
20394;BME280;10356;50.544;9.642;2024-01-27T10:29:36;100263.59;;;3.24;100.00
20394;BME280;10356;50.544;9.642;2024-01-27T10:32:08;100261.69;;;3.35;99.94
20394;BME280;10356;50.544;9.642;2024-01-27T10:34:35;100270.09;;;3.46;99.96
20394;BME280;10356;50.544;9.642;2024-01-27T10:37:02;100270.78;;;3.57;98.78
20394;BME280;10356;50.544;9.642;2024-01-27T10:39:28;100264.50;;;3.70;98.66
20394;BME280;10356;50.544;9.642;2024-01-27T10:42:00;100264.41;;;3.76;97.23
20394;BME280;10356;50.544;9.642;2024-01-27T10:44:28;100261.91;;;3.73;96.30
20394;BME280;10356;50.544;9.642;2024-01-27T10:46:56;100262.50;;;3.87;95.55
20394;BME280;10356;50.544;9.642;2024-01-27T10:49:28;100258.13;;;3.91;94.65
20394;BME280;10356;50.544;9.642;2024-01-27T10:51:59;100258.88;;;3.97;95.03
20394;BME280;10356;50.544;9.642;2024-01-27T10:54:28;100256.19;;;4.03;94.25
20394;BME280;10356;50.544;9.642;2024-01-27T10:56:57;100250.94;;;4.08;93.04
20394;BME280;10356;50.544;9.642;2024-01-27T10:59:26;100249.97;;;4.13;93.87
20394;BME280;10356;50.544;9.642;2024-01-27T11:01:54;100237.69;;;4.24;93.16
20394;BME280;10356;50.544;9.642;2024-01-27T11:04:21;100237.44;;;4.37;92.66
20394;BME280;10356;50.544;9.642;2024-01-27T11:06:48;100237.03;;;4.55;92.02
20394;BME280;10356;50.544;9.642;2024-01-27T11:09:15;100231.44;;;4.76;91.70
20394;BME280;10356;50.544;9.642;2024-01-27T11:11:44;100236.94;;;4.97;90.96
20394;BME280;10356;50.544;9.642;2024-01-27T11:14:13;100235.13;;;5.01;88.12
20394;BME280;10356;50.544;9.642;2024-01-27T11:16:40;100235.09;;;5.04;86.28
20394;BME280;10356;50.544;9.642;2024-01-27T11:19:10;100239.84;;;5.21;86.39
20394;BME280;10356;50.544;9.642;2024-01-27T11:21:36;100222.97;;;5.41;85.94
20394;BME280;10356;50.544;9.642;2024-01-27T11:24:12;100229.47;;;5.56;85.15
20394;BME280;10356;50.544;9.642;2024-01-27T11:26:39;100224.97;;;5.64;84.50
20394;BME280;10356;50.544;9.642;2024-01-27T11:29:06;100218.41;;;5.84;83.51
20394;BME280;10356;50.544;9.642;2024-01-27T11:31:40;100224.88;;;6.01;82.09
20394;BME280;10356;50.544;9.642;2024-01-27T11:34:10;100233.38;;;6.06;81.64
20394;BME280;10356;50.544;9.642;2024-01-27T11:36:37;100226.91;;;6.20;81.23
20394;BME280;10356;50.544;9.642;2024-01-27T11:39:04;100224.63;;;6.39;80.75
20394;BME280;10356;50.544;9.642;2024-01-27T11:41:31;100234.00;;;6.43;79.69
20394;BME280;10356;50.544;9.642;2024-01-27T11:43:58;100230.69;;;6.68;79.71
20394;BME280;10356;50.544;9.642;2024-01-27T11:46:26;100229.91;;;6.65;76.74
20394;BME280;10356;50.544;9.642;2024-01-27T11:48:54;100238.28;;;6.73;76.35
20394;BME280;10356;50.544;9.642;2024-01-27T11:51:21;100243.66;;;6.67;76.67
20394;BME280;10356;50.544;9.642;2024-01-27T11:53:48;100248.38;;;6.82;76.92
20394;BME280;10356;50.544;9.642;2024-01-27T11:56:14;100239.13;;;7.01;76.24
20394;BME280;10356;50.544;9.642;2024-01-27T11:58:46;100243.88;;;6.89;75.73
20394;BME280;10356;50.544;9.642;2024-01-27T12:01:13;100246.47;;;6.89;76.11
20394;BME280;10356;50.544;9.642;2024-01-27T12:03:40;100248.88;;;6.93;74.80
20394;BME280;10356;50.544;9.642;2024-01-27T12:06:08;100252.16;;;7.00;75.14
20394;BME280;10356;50.544;9.642;2024-01-27T12:08:35;100250.75;;;6.90;75.45
20394;BME280;10356;50.544;9.642;2024-01-27T12:11:01;100251.03;;;7.08;74.15
20394;BME280;10356;50.544;9.642;2024-01-27T12:13:28;100243.72;;;7.47;73.18
20394;BME280;10356;50.544;9.642;2024-01-27T12:15:55;100232.50;;;7.46;72.25
20394;BME280;10356;50.544;9.642;2024-01-27T12:18:22;100229.38;;;7.35;73.19
20394;BME280;10356;50.544;9.642;2024-01-27T12:20:54;100238.06;;;7.34;72.98
20394;BME280;10356;50.544;9.642;2024-01-27T12:23:22;100234.78;;;7.29;73.67
20394;BME280;10356;50.544;9.642;2024-01-27T12:25:52;100212.34;;;7.28;73.91
20394;BME280;10356;50.544;9.642;2024-01-27T12:28:19;100216.47;;;7.34;73.63
20394;BME280;10356;50.544;9.642;2024-01-27T12:30:46;100207.44;;;7.19;73.58
20394;BME280;10356;50.544;9.642;2024-01-27T12:33:13;100211.81;;;7.19;73.95
20394;BME280;10356;50.544;9.642;2024-01-27T12:35:39;100200.88;;;7.09;74.25
20394;BME280;10356;50.544;9.642;2024-01-27T12:38:06;100201.91;;;7.04;73.73
20394;BME280;10356;50.544;9.642;2024-01-27T12:40:34;100197.47;;;7.07;74.29
20394;BME280;10356;50.544;9.642;2024-01-27T12:43:00;100209.41;;;7.13;74.59
20394;BME280;10356;50.544;9.642;2024-01-27T12:45:27;100212.63;;;7.19;73.84
20394;BME280;10356;50.544;9.642;2024-01-27T12:47:54;100217.28;;;7.10;72.77
20394;BME280;10356;50.544;9.642;2024-01-27T12:50:20;100215.88;;;7.00;74.35
20394;BME280;10356;50.544;9.642;2024-01-27T12:52:47;100220.19;;;6.99;72.61